sensor_id;sensor_type;location;lat;lon;timestamp;pressure;altitude;pressure_sealevel;temperature;humidity
43364;BME280;40636;52.424;-1.948;2023-04-05T00:02:08;100594.03;;;7.55;100.00
43364;BME280;40636;52.424;-1.948;2023-04-05T00:04:39;100602.84;;;7.57;100.00
43364;BME280;40636;52.424;-1.948;2023-04-05T00:07:16;100595.09;;;7.54;100.00
43364;BME280;40636;52.424;-1.948;2023-04-05T00:09:44;100595.28;;;7.53;100.00
43364;BME280;40636;52.424;-1.948;2023-04-05T00:12:12;100597.81;;;7.54;100.00
43364;BME280;40636;52.424;-1.948;2023-04-05T00:14:39;100597.81;;;7.48;100.00
43364;BME280;40636;52.424;-1.948;2023-04-05T00:17:06;100597.00;;;7.47;100.00
43364;BME280;40636;52.424;-1.948;2023-04-05T00:19:36;100586.06;;;7.47;100.00
43364;BME280;40636;52.424;-1.948;2023-04-05T00:22:04;100578.94;;;7.40;100.00
43364;BME280;40636;52.424;-1.948;2023-04-05T00:24:31;100574.94;;;7.42;100.00
43364;BME280;40636;52.424;-1.948;2023-04-05T00:26:59;100572.44;;;7.41;100.00
43364;BME280;40636;52.424;-1.948;2023-04-05T00:29:27;100568.19;;;7.45;100.00
43364;BME280;40636;52.424;-1.948;2023-04-05T00:31:54;100570.13;;;7.37;100.00
43364;BME280;40636;52.424;-1.948;2023-04-05T00:34:21;100576.00;;;7.34;100.00
43364;BME280;40636;52.424;-1.948;2023-04-05T00:36:48;100568.47;;;7.30;100.00
43364;BME280;40636;52.424;-1.948;2023-04-05T00:39:15;100576.03;;;7.28;100.00
43364;BME280;40636;52.424;-1.948;2023-04-05T00:41:42;100569.75;;;7.27;100.00
43364;BME280;40636;52.424;-1.948;2023-04-05T00:44:12;100571.00;;;7.25;100.00
43364;BME280;40636;52.424;-1.948;2023-04-05T00:46:39;100569.75;;;7.27;100.00
43364;BME280;40636;52.424;-1.948;2023-04-05T00:49:08;100570.59;;;7.28;100.00
43364;BME280;40636;52.424;-1.948;2023-04-05T00:51:35;100573.13;;;7.23;100.00
43364;BME280;40636;52.424;-1.948;2023-04-05T00:54:02;100573.94;;;7.23;100.00
43364;BME280;40636;52.424;-1.948;2023-04-05T00:56:29;100562.63;;;7.20;100.00
43364;BME280;40636;52.424;-1.948;2023-04-05T00:58:56;100554.66;;;7.18;100.00
43364;BME280;40636;52.424;-1.948;2023-04-05T01:01:24;100552.31;;;7.22;100.00
43364;BME280;40636;52.424;-1.948;2023-04-05T01:03:54;100563.03;;;7.23;100.00
43364;BME280;40636;52.424;-1.948;2023-04-05T01:06:51;100560.50;;;7.22;100.00
43364;BME280;40636;52.424;-1.948;2023-04-05T01:09:56;100555.47;;;7.19;100.00
43364;BME280;40636;52.424;-1.948;2023-04-05T01:12:27;100548.78;;;7.15;100.00
43364;BME280;40636;52.424;-1.948;2023-04-05T01:14:58;100551.31;;;7.09;100.00
43364;BME280;40636;52.424;-1.948;2023-04-05T01:17:28;100546.47;;;7.11;100.00
43364;BME280;40636;52.424;-1.948;2023-04-05T01:19:57;100540.81;;;7.06;100.00
43364;BME280;40636;52.424;-1.948;2023-04-05T01:25:48;100539.13;;;7.05;100.00
43364;BME280;40636;52.424;-1.948;2023-04-05T01:31:19;100534.50;;;6.99;100.00
43364;BME280;40636;52.424;-1.948;2023-04-05T01:33:53;100530.56;;;6.95;100.00
43364;BME280;40636;52.424;-1.948;2023-04-05T01:39:00;100533.28;;;6.89;100.00
43364;BME280;40636;52.424;-1.948;2023-04-05T01:41:29;100532.47;;;6.81;100.00
43364;BME280;40636;52.424;-1.948;2023-04-05T01:43:56;100536.25;;;6.74;100.00
43364;BME280;40636;52.424;-1.948;2023-04-05T01:46:23;100525.75;;;6.71;100.00
43364;BME280;40636;52.424;-1.948;2023-04-05T01:48:49;100524.28;;;6.61;100.00
43364;BME280;40636;52.424;-1.948;2023-04-05T01:51:17;100522.81;;;6.52;100.00
43364;BME280;40636;52.424;-1.948;2023-04-05T01:53:43;100522.19;;;6.50;100.00
43364;BME280;40636;52.424;-1.948;2023-04-05T01:56:10;100514.84;;;6.44;100.00
43364;BME280;40636;52.424;-1.948;2023-04-05T01:58:36;100513.19;;;6.37;100.00
43364;BME280;40636;52.424;-1.948;2023-04-05T02:01:04;100509.81;;;6.28;100.00
43364;BME280;40636;52.424;-1.948;2023-04-05T02:03:31;100512.53;;;6.28;100.00
43364;BME280;40636;52.424;-1.948;2023-04-05T02:05:58;100521.13;;;6.25;100.00
43364;BME280;40636;52.424;-1.948;2023-04-05T02:08:24;100514.41;;;6.21;100.00
43364;BME280;40636;52.424;-1.948;2023-04-05T02:10:52;100513.78;;;6.19;100.00
43364;BME280;40636;52.424;-1.948;2023-04-05T02:13:19;100521.97;;;6.19;100.00
43364;BME280;40636;52.424;-1.948;2023-04-05T02:15:49;100511.06;;;6.19;100.00
43364;BME280;40636;52.424;-1.948;2023-04-05T02:18:17;100511.69;;;6.14;100.00
43364;BME280;40636;52.424;-1.948;2023-04-05T02:21:01;100511.47;;;6.09;100.00
43364;BME280;40636;52.424;-1.948;2023-04-05T02:23:28;100508.94;;;6.07;100.00
43364;BME280;40636;52.424;-1.948;2023-04-05T02:25:56;100506.88;;;6.09;100.00
43364;BME280;40636;52.424;-1.948;2023-04-05T02:28:23;100496.78;;;6.03;100.00
43364;BME280;40636;52.424;-1.948;2023-04-05T02:30:50;100495.53;;;6.06;100.00
43364;BME280;40636;52.424;-1.948;2023-04-05T02:33:16;100494.72;;;6.05;100.00
43364;BME280;40636;52.424;-1.948;2023-04-05T02:35:43;100492.59;;;6.07;100.00
43364;BME280;40636;52.424;-1.948;2023-04-05T02:38:10;100485.69;;;6.12;100.00
43364;BME280;40636;52.424;-1.948;2023-04-05T02:40:37;100486.75;;;6.10;100.00
43364;BME280;40636;52.424;-1.948;2023-04-05T02:43:07;100480.25;;;6.12;100.00
43364;BME280;40636;52.424;-1.948;2023-04-05T02:45:34;100479.41;;;6.11;100.00
43364;BME280;40636;52.424;-1.948;2023-04-05T02:48:01;100470.41;;;6.10;100.00
43364;BME280;40636;52.424;-1.948;2023-04-05T02:50:28;100474.16;;;6.09;100.00
43364;BME280;40636;52.424;-1.948;2023-04-05T02:52:55;100468.72;;;6.09;100.00
43364;BME280;40636;52.424;-1.948;2023-04-05T02:55:21;100466.41;;;6.06;100.00
43364;BME280;40636;52.424;-1.948;2023-04-05T02:57:48;100469.13;;;6.06;100.00
43364;BME280;40636;52.424;-1.948;2023-04-05T03:00:15;100466.63;;;6.05;100.00
43364;BME280;40636;52.424;-1.948;2023-04-05T03:02:42;100468.28;;;6.06;100.00
43364;BME280;40636;52.424;-1.948;2023-04-05T03:05:09;100465.78;;;6.04;100.00
43364;BME280;40636;52.424;-1.948;2023-04-05T03:07:35;100460.34;;;6.04;100.00
43364;BME280;40636;52.424;-1.948;2023-04-05T03:10:03;100461.38;;;6.03;100.00
43364;BME280;40636;52.424;-1.948;2023-04-05T03:12:30;100459.91;;;6.01;100.00
43364;BME280;40636;52.424;-1.948;2023-04-05T03:14:57;100464.91;;;6.04;100.00
43364;BME280;40636;52.424;-1.948;2023-04-05T03:17:25;100462.00;;;6.05;100.00
43364;BME280;40636;52.424;-1.948;2023-04-05T03:19:52;100464.53;;;6.07;100.00
43364;BME280;40636;52.424;-1.948;2023-04-05T03:22:19;100459.28;;;6.05;100.00
43364;BME280;40636;52.424;-1.948;2023-04-05T03:24:46;100459.47;;;6.04;100.00
43364;BME280;40636;52.424;-1.948;2023-04-05T03:27:13;100461.81;;;6.00;100.00
43364;BME280;40636;52.424;-1.948;2023-04-05T03:29:41;100459.69;;;6.02;100.00
43364;BME280;40636;52.424;-1.948;2023-04-05T03:32:08;100460.34;;;6.04;100.00
43364;BME280;40636;52.424;-1.948;2023-04-05T03:34:37;100455.28;;;6.01;100.00
43364;BME280;40636;52.424;-1.948;2023-04-05T03:37:04;100450.91;;;6.00;100.00
43364;BME280;40636;52.424;-1.948;2023-04-05T03:39:30;100447.13;;;6.01;100.00
43364;BME280;40636;52.424;-1.948;2023-04-05T03:41:57;100447.13;;;6.01;100.00
43364;BME280;40636;52.424;-1.948;2023-04-05T03:44:24;100438.94;;;6.01;100.00
43364;BME280;40636;52.424;-1.948;2023-04-05T03:46:51;100439.56;;;5.97;100.00
43364;BME280;40636;52.424;-1.948;2023-04-05T03:49:17;100430.97;;;5.93;100.00
43364;BME280;40636;52.424;-1.948;2023-04-05T03:51:45;100441.41;;;5.90;100.00
43364;BME280;40636;52.424;-1.948;2023-04-05T03:54:12;100437.66;;;5.84;100.00
43364;BME280;40636;52.424;-1.948;2023-04-05T03:56:38;100440.38;;;5.84;100.00
43364;BME280;40636;52.424;-1.948;2023-04-05T03:59:05;100437.22;;;5.80;100.00
43364;BME280;40636;52.424;-1.948;2023-04-05T04:01:32;100438.03;;;5.81;100.00
43364;BME280;40636;52.424;-1.948;2023-04-05T04:03:59;100439.94;;;5.74;100.00
43364;BME280;40636;52.424;-1.948;2023-04-05T04:06:25;100435.31;;;5.68;100.00
43364;BME280;40636;52.424;-1.948;2023-04-05T04:08:52;100426.31;;;5.60;100.00
43364;BME280;40636;52.424;-1.948;2023-04-05T04:11:19;100429.22;;;5.52;100.00
43364;BME280;40636;52.424;-1.948;2023-04-05T04:13:46;100427.97;;;5.55;100.00
43364;BME280;40636;52.424;-1.948;2023-04-05T04:16:12;100425.25;;;5.55;100.00
43364;BME280;40636;52.424;-1.948;2023-04-05T04:18:39;100416.03;;;5.56;100.00
43364;BME280;40636;52.424;-1.948;2023-04-05T04:21:06;100410.19;;;5.59;100.00
43364;BME280;40636;52.424;-1.948;2023-04-05T04:23:34;100413.72;;;5.53;100.00
43364;BME280;40636;52.424;-1.948;2023-04-05T04:26:04;100420.41;;;5.50;100.00
43364;BME280;40636;52.424;-1.948;2023-04-05T04:28:31;100418.09;;;5.54;100.00
43364;BME280;40636;52.424;-1.948;2023-04-05T04:31:00;100411.00;;;5.53;100.00
43364;BME280;40636;52.424;-1.948;2023-04-05T04:33:30;100416.25;;;5.54;100.00
43364;BME280;40636;52.424;-1.948;2023-04-05T04:35:57;100418.97;;;5.54;100.00
43364;BME280;40636;52.424;-1.948;2023-04-05T04:38:23;100417.91;;;5.55;100.00
43364;BME280;40636;52.424;-1.948;2023-04-05T04:40:51;100417.25;;;5.53;100.00
43364;BME280;40636;52.424;-1.948;2023-04-05T04:43:19;100412.25;;;5.57;100.00
43364;BME280;40636;52.424;-1.948;2023-04-05T04:45:52;100413.94;;;5.58;100.00
43364;BME280;40636;52.424;-1.948;2023-04-05T04:48:21;100419.19;;;5.59;100.00
43364;BME280;40636;52.424;-1.948;2023-04-05T04:50:48;100411.41;;;5.63;100.00
43364;BME280;40636;52.424;-1.948;2023-04-05T04:53:15;100406.84;;;5.64;100.00
43364;BME280;40636;52.424;-1.948;2023-04-05T04:55:48;100409.56;;;5.64;100.00
43364;BME280;40636;52.424;-1.948;2023-04-05T04:58:15;100402.00;;;5.66;100.00
43364;BME280;40636;52.424;-1.948;2023-04-05T05:00:43;100398.66;;;5.70;100.00
43364;BME280;40636;52.424;-1.948;2023-04-05T05:03:11;100400.16;;;5.73;100.00
43364;BME280;40636;52.424;-1.948;2023-04-05T05:05:45;100387.78;;;5.77;100.00
43364;BME280;40636;52.424;-1.948;2023-04-05T05:08:12;100393.03;;;5.78;100.00
43364;BME280;40636;52.424;-1.948;2023-04-05T05:10:39;100390.09;;;5.73;100.00
43364;BME280;40636;52.424;-1.948;2023-04-05T05:13:06;100387.16;;;5.75;100.00
43364;BME280;40636;52.424;-1.948;2023-04-05T05:15:33;100385.91;;;5.77;100.00
43364;BME280;40636;52.424;-1.948;2023-04-05T05:18:00;100385.47;;;5.74;100.00
43364;BME280;40636;52.424;-1.948;2023-04-05T05:20:28;100387.16;;;5.75;100.00
43364;BME280;40636;52.424;-1.948;2023-04-05T05:22:55;100378.78;;;5.70;100.00
43364;BME280;40636;52.424;-1.948;2023-04-05T05:25:22;100379.38;;;5.72;100.00
43364;BME280;40636;52.424;-1.948;2023-04-05T05:27:49;100373.31;;;5.70;100.00
43364;BME280;40636;52.424;-1.948;2023-04-05T05:30:17;100382.97;;;5.72;100.00
43364;BME280;40636;52.424;-1.948;2023-04-05T05:32:44;100377.72;;;5.71;100.00
43364;BME280;40636;52.424;-1.948;2023-04-05T05:35:11;100385.47;;;5.74;100.00
43364;BME280;40636;52.424;-1.948;2023-04-05T05:37:37;100380.66;;;5.76;100.00
43364;BME280;40636;52.424;-1.948;2023-04-05T05:40:05;100382.53;;;5.75;100.00
43364;BME280;40636;52.424;-1.948;2023-04-05T05:42:32;100389.91;;;5.81;100.00
43364;BME280;40636;52.424;-1.948;2023-04-05T05:45:04;100387.34;;;5.80;100.00
43364;BME280;40636;52.424;-1.948;2023-04-05T05:47:31;100389.47;;;5.78;100.00
43364;BME280;40636;52.424;-1.948;2023-04-05T05:49:58;100391.13;;;5.79;100.00
43364;BME280;40636;52.424;-1.948;2023-04-05T05:52:25;100384.44;;;5.81;100.00
43364;BME280;40636;52.424;-1.948;2023-04-05T05:54:52;100388.63;;;5.77;100.00
43364;BME280;40636;52.424;-1.948;2023-04-05T05:57:18;100384.84;;;5.78;100.00
43364;BME280;40636;52.424;-1.948;2023-04-05T05:59:45;100385.69;;;5.79;100.00
43364;BME280;40636;52.424;-1.948;2023-04-05T06:02:12;100374.38;;;5.82;100.00
43364;BME280;40636;52.424;-1.948;2023-04-05T06:04:39;100381.94;;;5.87;100.00
43364;BME280;40636;52.424;-1.948;2023-04-05T06:07:06;100379.63;;;5.83;100.00
43364;BME280;40636;52.424;-1.948;2023-04-05T06:09:33;100368.94;;;5.82;100.00
43364;BME280;40636;52.424;-1.948;2023-04-05T06:12:00;100372.06;;;5.79;100.00
43364;BME280;40636;52.424;-1.948;2023-04-05T06:14:28;100365.38;;;5.75;100.00
43364;BME280;40636;52.424;-1.948;2023-04-05T06:16:55;100362.41;;;5.76;100.00
43364;BME280;40636;52.424;-1.948;2023-04-05T06:19:22;100364.34;;;5.82;100.00
43364;BME280;40636;52.424;-1.948;2023-04-05T06:21:49;100363.06;;;5.78;100.00
43364;BME280;40636;52.424;-1.948;2023-04-05T06:24:16;100365.78;;;5.78;100.00
43364;BME280;40636;52.424;-1.948;2023-04-05T06:26:42;100357.81;;;5.83;100.00
43364;BME280;40636;52.424;-1.948;2023-04-05T06:29:09;100359.31;;;5.93;100.00
43364;BME280;40636;52.424;-1.948;2023-04-05T06:31:36;100368.97;;;5.95;100.00
43364;BME280;40636;52.424;-1.948;2023-04-05T06:34:03;100368.34;;;6.00;100.00
43364;BME280;40636;52.424;-1.948;2023-04-05T06:36:30;100361.00;;;6.00;100.00
43364;BME280;40636;52.424;-1.948;2023-04-05T06:38:57;100363.09;;;6.05;100.00
43364;BME280;40636;52.424;-1.948;2023-04-05T06:41:25;100364.53;;;6.07;100.00
43364;BME280;40636;52.424;-1.948;2023-04-05T06:43:53;100364.75;;;6.13;100.00
43364;BME280;40636;52.424;-1.948;2023-04-05T06:46:20;100364.56;;;6.14;100.00
43364;BME280;40636;52.424;-1.948;2023-04-05T06:48:47;100371.25;;;6.18;100.00
43364;BME280;40636;52.424;-1.948;2023-04-05T06:51:15;100368.72;;;6.17;100.00
43364;BME280;40636;52.424;-1.948;2023-04-05T06:53:42;100362.25;;;6.18;100.00
43364;BME280;40636;52.424;-1.948;2023-04-05T06:56:08;100368.31;;;6.20;100.00
43364;BME280;40636;52.424;-1.948;2023-04-05T06:58:35;100355.94;;;6.24;100.00
43364;BME280;40636;52.424;-1.948;2023-04-05T07:01:02;100365.16;;;6.29;100.00
43364;BME280;40636;52.424;-1.948;2023-04-05T07:03:29;100359.94;;;6.28;100.00
43364;BME280;40636;52.424;-1.948;2023-04-05T07:05:58;100365.78;;;6.25;100.00
43364;BME280;40636;52.424;-1.948;2023-04-05T07:08:29;100358.88;;;6.29;100.00
43364;BME280;40636;52.424;-1.948;2023-04-05T07:10:57;100357.38;;;6.33;100.00
43364;BME280;40636;52.424;-1.948;2023-04-05T07:13:24;100371.88;;;6.27;100.00
43364;BME280;40636;52.424;-1.948;2023-04-05T07:15:51;100362.00;;;6.32;100.00
43364;BME280;40636;52.424;-1.948;2023-04-05T07:18:18;100369.75;;;6.42;100.00
43364;BME280;40636;52.424;-1.948;2023-04-05T07:20:46;100370.16;;;6.39;100.00
43364;BME280;40636;52.424;-1.948;2023-04-05T07:23:14;100364.72;;;6.46;100.00
43364;BME280;40636;52.424;-1.948;2023-04-05T07:25:42;100365.31;;;6.48;100.00
43364;BME280;40636;52.424;-1.948;2023-04-05T07:28:08;100360.50;;;6.43;100.00
43364;BME280;40636;52.424;-1.948;2023-04-05T07:30:35;100364.72;;;6.46;100.00
43364;BME280;40636;52.424;-1.948;2023-04-05T07:33:02;100363.44;;;6.48;100.00
43364;BME280;40636;52.424;-1.948;2023-04-05T07:35:29;100363.00;;;6.51;100.00
43364;BME280;40636;52.424;-1.948;2023-04-05T07:37:56;100356.28;;;6.54;100.00
43364;BME280;40636;52.424;-1.948;2023-04-05T07:40:22;100357.38;;;6.46;100.00
43364;BME280;40636;52.424;-1.948;2023-04-05T07:42:49;100355.66;;;6.52;100.00
43364;BME280;40636;52.424;-1.948;2023-04-05T07:45:16;100354.41;;;6.48;100.00
43364;BME280;40636;52.424;-1.948;2023-04-05T07:47:43;100355.03;;;6.56;100.00
43364;BME280;40636;52.424;-1.948;2023-04-05T07:50:10;100349.97;;;6.60;100.00
43364;BME280;40636;52.424;-1.948;2023-04-05T07:52:40;100350.41;;;6.64;100.00
43364;BME280;40636;52.424;-1.948;2023-04-05T07:55:08;100358.13;;;6.67;100.00
43364;BME280;40636;52.424;-1.948;2023-04-05T07:57:35;100350.13;;;6.72;100.00
43364;BME280;40636;52.424;-1.948;2023-04-05T08:00:04;100356.03;;;6.69;100.00
43364;BME280;40636;52.424;-1.948;2023-04-05T08:02:35;100340.28;;;6.71;100.00
43364;BME280;40636;52.424;-1.948;2023-04-05T08:05:02;100352.25;;;6.70;100.00
43364;BME280;40636;52.424;-1.948;2023-04-05T08:07:32;100347.00;;;6.75;100.00
43364;BME280;40636;52.424;-1.948;2023-04-05T08:10:02;100341.09;;;6.78;100.00
43364;BME280;40636;52.424;-1.948;2023-04-05T08:12:34;100343.84;;;6.78;100.00
43364;BME280;40636;52.424;-1.948;2023-04-05T08:15:10;100351.97;;;6.84;100.00
43364;BME280;40636;52.424;-1.948;2023-04-05T08:17:43;100345.03;;;6.95;100.00
43364;BME280;40636;52.424;-1.948;2023-04-05T08:20:15;100348.19;;;6.92;100.00
43364;BME280;40636;52.424;-1.948;2023-04-05T08:22:47;100348.38;;;6.97;100.00
43364;BME280;40636;52.424;-1.948;2023-04-05T08:25:26;100340.78;;;6.99;100.00
43364;BME280;40636;52.424;-1.948;2023-04-05T08:27:57;100337.41;;;7.04;100.00
43364;BME280;40636;52.424;-1.948;2023-04-05T08:30:34;100336.38;;;6.98;100.00
43364;BME280;40636;52.424;-1.948;2023-04-05T08:33:03;100334.06;;;7.02;100.00
43364;BME280;40636;52.424;-1.948;2023-04-05T08:35:40;100332.41;;;7.01;100.00
43364;BME280;40636;52.424;-1.948;2023-04-05T08:38:11;100325.81;;;7.08;100.00
43364;BME280;40636;52.424;-1.948;2023-04-05T08:40:45;100334.22;;;7.14;100.00
43364;BME280;40636;52.424;-1.948;2023-04-05T08:43:33;100331.69;;;7.12;100.00
43364;BME280;40636;52.424;-1.948;2023-04-05T08:46:07;100336.50;;;7.17;100.00
43364;BME280;40636;52.424;-1.948;2023-04-05T08:48:34;100338.19;;;7.18;100.00
43364;BME280;40636;52.424;-1.948;2023-04-05T08:51:03;100331.59;;;7.32;100.00
43364;BME280;40636;52.424;-1.948;2023-04-05T08:53:32;100331.75;;;7.37;100.00
43364;BME280;40636;52.424;-1.948;2023-04-05T08:55:59;100329.88;;;7.37;100.00
43364;BME280;40636;52.424;-1.948;2023-04-05T08:58:27;100325.97;;;7.52;100.00
43364;BME280;40636;52.424;-1.948;2023-04-05T09:00:55;100328.72;;;7.52;100.00
43364;BME280;40636;52.424;-1.948;2023-04-05T09:03:27;100326.13;;;7.63;100.00
43364;BME280;40636;52.424;-1.948;2023-04-05T09:05:57;100322.56;;;7.63;100.00
43364;BME280;40636;52.424;-1.948;2023-04-05T09:08:24;100324.00;;;7.66;100.00
43364;BME280;40636;52.424;-1.948;2023-04-05T09:10:51;100312.00;;;7.67;100.00
43364;BME280;40636;52.424;-1.948;2023-04-05T09:13:18;100318.19;;;7.55;100.00
43364;BME280;40636;52.424;-1.948;2023-04-05T09:15:45;100320.75;;;7.50;100.00
43364;BME280;40636;52.424;-1.948;2023-04-05T09:18:12;100317.13;;;7.56;100.00
43364;BME280;40636;52.424;-1.948;2023-04-05T09:20:55;100314.56;;;7.61;100.00
43364;BME280;40636;52.424;-1.948;2023-04-05T09:23:22;100320.34;;;7.72;100.00
43364;BME280;40636;52.424;-1.948;2023-04-05T09:25:49;100326.88;;;7.71;100.00
43364;BME280;40636;52.424;-1.948;2023-04-05T09:28:18;100316.94;;;7.76;100.00
43364;BME280;40636;52.424;-1.948;2023-04-05T09:30:45;100320.75;;;7.75;100.00
43364;BME280;40636;52.424;-1.948;2023-04-05T09:33:17;100318.13;;;7.87;100.00
43364;BME280;40636;52.424;-1.948;2023-04-05T09:35:48;100315.50;;;7.99;100.00
43364;BME280;40636;52.424;-1.948;2023-04-05T09:38:15;100315.44;;;8.05;100.00
43364;BME280;40636;52.424;-1.948;2023-04-05T09:40:44;100311.75;;;8.18;100.00
43364;BME280;40636;52.424;-1.948;2023-04-05T09:43:13;100312.75;;;8.24;100.00
43364;BME280;40636;52.424;-1.948;2023-04-05T09:45:58;100304.09;;;8.27;100.00
43364;BME280;40636;52.424;-1.948;2023-04-05T09:48:45;100304.13;;;8.45;100.00
43364;BME280;40636;52.424;-1.948;2023-04-05T09:51:13;100302.75;;;8.54;100.00
43364;BME280;40636;52.424;-1.948;2023-04-05T09:54:00;100305.41;;;8.61;100.00
43364;BME280;40636;52.424;-1.948;2023-04-05T09:56:29;100304.72;;;8.66;100.00
43364;BME280;40636;52.424;-1.948;2023-04-05T09:59:10;100305.47;;;8.73;100.00
43364;BME280;40636;52.424;-1.948;2023-04-05T10:01:42;100305.47;;;8.73;100.00
43364;BME280;40636;52.424;-1.948;2023-04-05T10:04:09;100305.00;;;8.76;100.00
43364;BME280;40636;52.424;-1.948;2023-04-05T10:06:41;100301.94;;;8.84;100.00
43364;BME280;40636;52.424;-1.948;2023-04-05T10:09:10;100291.31;;;8.76;100.00
43364;BME280;40636;52.424;-1.948;2023-04-05T10:11:37;100296.66;;;8.71;100.00
43364;BME280;40636;52.424;-1.948;2023-04-05T10:14:06;100304.56;;;8.79;100.00
43364;BME280;40636;52.424;-1.948;2023-04-05T10:19:21;100292.53;;;8.80;100.00
43364;BME280;40636;52.424;-1.948;2023-04-05T10:21:52;100298.91;;;8.92;100.00
43364;BME280;40636;52.424;-1.948;2023-04-05T10:30:02;100297.25;;;8.91;100.00
43364;BME280;40636;52.424;-1.948;2023-04-05T10:32:34;100304.94;;;8.82;100.00
43364;BME280;40636;52.424;-1.948;2023-04-05T10:35:15;100300.06;;;8.84;100.00
43364;BME280;40636;52.424;-1.948;2023-04-05T10:38:07;100293.38;;;8.80;100.00
43364;BME280;40636;52.424;-1.948;2023-04-05T10:40:43;100300.53;;;8.81;100.00
43364;BME280;40636;52.424;-1.948;2023-04-05T10:43:16;100290.88;;;8.79;100.00
43364;BME280;40636;52.424;-1.948;2023-04-05T10:45:47;100297.31;;;8.84;100.00
43364;BME280;40636;52.424;-1.948;2023-04-05T10:50:59;100286.31;;;8.73;100.00
43364;BME280;40636;52.424;-1.948;2023-04-05T10:53:26;100292.38;;;8.75;100.00
43364;BME280;40636;52.424;-1.948;2023-04-05T10:55:54;100292.16;;;8.76;100.00
43364;BME280;40636;52.424;-1.948;2023-04-05T10:58:21;100287.38;;;8.72;100.00
43364;BME280;40636;52.424;-1.948;2023-04-05T11:00:49;100292.84;;;8.72;100.00
43364;BME280;40636;52.424;-1.948;2023-04-05T11:03:48;100284.03;;;8.70;100.00
43364;BME280;40636;52.424;-1.948;2023-04-05T11:06:21;100284.72;;;8.65;100.00
43364;BME280;40636;52.424;-1.948;2023-04-05T11:08:52;100274.75;;;8.71;100.00
43364;BME280;40636;52.424;-1.948;2023-04-05T11:11:21;100280.25;;;8.52;100.00
43364;BME280;40636;52.424;-1.948;2023-04-05T11:13:55;100274.09;;;8.57;100.00
43364;BME280;40636;52.424;-1.948;2023-04-05T11:16:37;100272.34;;;8.62;100.00
43364;BME280;40636;52.424;-1.948;2023-04-05T11:19:04;100270.09;;;8.59;100.00
43364;BME280;40636;52.424;-1.948;2023-04-05T11:21:32;100269.38;;;8.64;100.00
43364;BME280;40636;52.424;-1.948;2023-04-05T11:24:07;100270.47;;;8.63;100.00
43364;BME280;40636;52.424;-1.948;2023-04-05T11:29:14;100265.19;;;8.61;100.00
43364;BME280;40636;52.424;-1.948;2023-04-05T11:32:10;100263.44;;;8.67;100.00
43364;BME280;40636;52.424;-1.948;2023-04-05T11:34:40;100260.28;;;8.52;100.00
43364;BME280;40636;52.424;-1.948;2023-04-05T11:37:08;100268.25;;;8.53;100.00
43364;BME280;40636;52.424;-1.948;2023-04-05T11:39:35;100263.59;;;8.54;100.00
43364;BME280;40636;52.424;-1.948;2023-04-05T11:42:05;100261.41;;;8.62;100.00
43364;BME280;40636;52.424;-1.948;2023-04-05T11:44:40;100254.53;;;8.72;100.00
43364;BME280;40636;52.424;-1.948;2023-04-05T11:47:06;100258.22;;;8.66;100.00
43364;BME280;40636;52.424;-1.948;2023-04-05T11:49:36;100252.50;;;8.67;100.00
43364;BME280;40636;52.424;-1.948;2023-04-05T11:52:17;100252.50;;;8.67;100.00
43364;BME280;40636;52.424;-1.948;2023-04-05T11:54:44;100255.16;;;8.74;100.00
43364;BME280;40636;52.424;-1.948;2023-04-05T11:57:14;100246.50;;;8.77;100.00
43364;BME280;40636;52.424;-1.948;2023-04-05T11:59:41;100244.34;;;8.79;100.00
43364;BME280;40636;52.424;-1.948;2023-04-05T12:02:08;100247.47;;;8.82;100.00
43364;BME280;40636;52.424;-1.948;2023-04-05T12:04:36;100245.56;;;8.83;100.00
43364;BME280;40636;52.424;-1.948;2023-04-05T12:10:01;100236.53;;;8.82;100.00
43364;BME280;40636;52.424;-1.948;2023-04-05T12:12:41;100229.47;;;8.75;100.00
43364;BME280;40636;52.424;-1.948;2023-04-05T12:15:10;100227.19;;;8.72;100.00
43364;BME280;40636;52.424;-1.948;2023-04-05T12:17:49;100224.59;;;8.77;100.00
43364;BME280;40636;52.424;-1.948;2023-04-05T12:20:18;100219.28;;;8.82;100.00
43364;BME280;40636;52.424;-1.948;2023-04-05T12:22:47;100228.88;;;8.73;100.00
43364;BME280;40636;52.424;-1.948;2023-04-05T12:25:16;100227.00;;;8.85;100.00
43364;BME280;40636;52.424;-1.948;2023-04-05T12:27:43;100224.06;;;8.98;100.00
43364;BME280;40636;52.424;-1.948;2023-04-05T12:30:18;100212.91;;;9.00;100.00
43364;BME280;40636;52.424;-1.948;2023-04-05T12:32:47;100216.59;;;9.05;100.00
43364;BME280;40636;52.424;-1.948;2023-04-05T12:35:19;100218.50;;;9.05;100.00
43364;BME280;40636;52.424;-1.948;2023-04-05T12:37:49;100217.19;;;9.07;100.00
43364;BME280;40636;52.424;-1.948;2023-04-05T12:40:21;100218.97;;;9.02;100.00
43364;BME280;40636;52.424;-1.948;2023-04-05T12:42:48;100214.19;;;8.97;100.00
43364;BME280;40636;52.424;-1.948;2023-04-05T12:45:16;100211.91;;;8.94;100.00
43364;BME280;40636;52.424;-1.948;2023-04-05T12:48:13;100214.53;;;8.89;100.00
43364;BME280;40636;52.424;-1.948;2023-04-05T12:50:54;100219.47;;;8.80;100.00
43364;BME280;40636;52.424;-1.948;2023-04-05T12:53:22;100206.03;;;8.79;100.00
43364;BME280;40636;52.424;-1.948;2023-04-05T12:55:52;100203.81;;;8.87;100.00
43364;BME280;40636;52.424;-1.948;2023-04-05T12:58:20;100208.47;;;8.87;100.00
43364;BME280;40636;52.424;-1.948;2023-04-05T13:00:48;100200.13;;;8.82;100.00
43364;BME280;40636;52.424;-1.948;2023-04-05T13:03:17;100206.41;;;8.82;100.00
43364;BME280;40636;52.424;-1.948;2023-04-05T13:05:46;100204.66;;;8.88;100.00
43364;BME280;40636;52.424;-1.948;2023-04-05T13:08:15;100203.69;;;8.82;100.00
43364;BME280;40636;52.424;-1.948;2023-04-05T13:10:44;100203.44;;;8.84;100.00
43364;BME280;40636;52.424;-1.948;2023-04-05T13:13:13;100195.34;;;8.89;100.00
43364;BME280;40636;52.424;-1.948;2023-04-05T13:15:39;100195.28;;;8.96;100.00
43364;BME280;40636;52.424;-1.948;2023-04-05T13:18:07;100196.94;;;8.97;100.00